createdAt,value
2022-11-09T00:02:28.203Z,12.2
2022-11-09T00:12:28.241Z,12.1
2022-11-09T00:22:28.174Z,12.1
2022-11-09T00:32:28.216Z,12
2022-11-09T00:42:28.173Z,11.9
2022-11-09T00:52:28.103Z,11.8
2022-11-09T01:02:28.145Z,12.1
2022-11-09T01:12:28.139Z,12.3
2022-11-09T01:22:28.068Z,12.3
2022-11-09T01:32:28.051Z,12.2
2022-11-09T01:42:28.075Z,12.2
2022-11-09T01:52:28.018Z,12.3
2022-11-09T02:02:28.021Z,12.3
2022-11-09T02:12:28.023Z,12.3
2022-11-09T02:22:27.964Z,12.5
2022-11-09T02:32:27.941Z,12.3
2022-11-09T02:42:27.971Z,12.1
2022-11-09T02:52:27.910Z,12.1
2022-11-09T03:02:27.887Z,12
2022-11-09T03:12:27.925Z,12.1
2022-11-09T03:32:27.844Z,12
2022-11-09T03:42:27.856Z,11.9
2022-11-09T03:52:27.837Z,11.9
2022-11-09T04:02:27.791Z,11.9
2022-11-09T04:12:27.764Z,11.8
2022-11-09T04:22:27.779Z,11.9
2022-11-09T04:32:27.734Z,11.9
2022-11-09T04:42:27.712Z,12.2
2022-11-09T04:52:27.778Z,12.5
2022-11-09T05:02:27.687Z,12.8
2022-11-09T05:12:27.671Z,12.5
2022-11-09T05:22:27.696Z,12.2
2022-11-09T05:32:27.629Z,12
2022-11-09T05:42:27.616Z,12
2022-11-09T05:52:27.625Z,12
2022-11-09T06:02:27.596Z,12
2022-11-09T06:12:27.561Z,12
2022-11-09T06:22:27.588Z,11.9
2022-11-09T06:32:27.533Z,11.5
2022-11-09T06:42:27.562Z,11.3
2022-11-09T06:52:27.537Z,11.4
2022-11-09T07:02:27.489Z,11.2
2022-11-09T07:12:27.467Z,11.2
2022-11-09T07:22:27.482Z,11.3
2022-11-09T07:32:53.826Z,11.1
2022-11-09T07:42:27.425Z,11.1
2022-11-09T07:52:27.419Z,11.1
2022-11-09T08:02:27.482Z,11.2
2022-11-09T08:12:27.810Z,11.2
2022-11-09T08:22:27.382Z,11.2
2022-11-09T08:32:27.339Z,11.2
2022-11-09T08:42:27.337Z,11.1
2022-11-09T08:52:27.331Z,11.1
2022-11-09T09:02:27.294Z,11.2
2022-11-09T09:12:27.299Z,11.2
2022-11-09T09:22:27.291Z,11.2
2022-11-09T09:32:27.229Z,11.3
2022-11-09T09:42:27.261Z,11.2
2022-11-09T10:02:27.176Z,11.4
2022-11-09T10:12:27.197Z,11.5
2022-11-09T10:22:27.178Z,11.5
2022-11-09T10:32:27.143Z,11.6
2022-11-09T10:42:27.127Z,11.8
2022-11-09T10:52:27.112Z,11.9
2022-11-09T11:02:27.100Z,12.1
2022-11-09T11:12:27.107Z,12.1
2022-11-09T11:22:27.080Z,12.1
2022-11-09T11:32:27.040Z,12.1
2022-11-09T11:42:27.042Z,12.2
2022-11-09T11:52:27.025Z,12.1
2022-11-09T12:02:27.137Z,12
2022-11-09T12:12:26.995Z,11.9
2022-11-09T12:22:26.994Z,12
2022-11-09T12:32:26.924Z,12
2022-11-09T12:42:26.944Z,11.9
2022-11-09T12:52:26.931Z,11.7
2022-11-09T13:02:26.879Z,11.6
2022-11-09T13:12:26.896Z,11.6
2022-11-09T13:22:26.847Z,11.6
2022-11-09T13:32:26.832Z,11.5
2022-11-09T13:42:26.846Z,11.5
2022-11-09T13:52:26.797Z,11.6
2022-11-09T14:02:26.782Z,11.6
2022-11-09T14:12:26.803Z,11.5
2022-11-09T14:22:26.750Z,11.5
2022-11-09T14:32:26.782Z,11.4
2022-11-09T14:42:26.743Z,11.4
2022-11-09T14:52:26.709Z,11.4
2022-11-09T15:02:26.696Z,11.4
2022-11-09T15:12:26.731Z,11.5
2022-11-09T15:22:26.652Z,11.6
2022-11-09T15:32:26.657Z,11.5
2022-11-09T15:42:26.665Z,11.5
2022-11-09T15:52:26.613Z,11.4
2022-11-09T16:02:26.613Z,11.4
2022-11-09T16:12:26.617Z,11.4
2022-11-09T16:22:26.600Z,11.4
2022-11-09T16:32:26.544Z,11.4
2022-11-09T16:42:26.563Z,11.4
2022-11-09T16:52:26.528Z,11.4
2022-11-09T17:02:26.509Z,11.3
2022-11-09T17:12:26.527Z,11.3
2022-11-09T17:22:26.467Z,11.3
2022-11-09T17:32:26.462Z,11.3
2022-11-09T17:42:26.442Z,11.3
2022-11-09T17:52:26.454Z,11.3
2022-11-09T18:02:26.411Z,11.3
2022-11-09T18:12:26.394Z,11.3
2022-11-09T18:22:26.400Z,11.2
2022-11-09T18:32:26.359Z,11.3
2022-11-09T18:42:26.325Z,11.2
2022-11-09T18:52:26.358Z,11.3
2022-11-09T19:02:26.300Z,11.2
2022-11-09T19:12:26.295Z,11.3
2022-11-09T19:22:26.305Z,11.2
2022-11-09T19:32:26.263Z,11.2
2022-11-09T19:42:26.254Z,11.2
2022-11-09T19:52:26.262Z,11.1
2022-11-09T20:02:26.220Z,11.1
2022-11-09T20:12:26.192Z,11.1
2022-11-09T20:22:26.221Z,11.1
2022-11-09T20:32:26.201Z,11.1
2022-11-09T20:42:26.150Z,11
2022-11-09T20:52:26.184Z,11.1
2022-11-09T21:02:26.114Z,11
2022-11-09T21:12:26.101Z,11
2022-11-09T21:22:26.089Z,11
2022-11-09T21:32:26.092Z,11
2022-11-09T21:42:26.060Z,11.1
2022-11-09T21:52:26.079Z,11
2022-11-09T22:02:26.025Z,10.9
2022-11-09T22:12:26.051Z,10.7
2022-11-09T22:22:25.992Z,10.6
2022-11-09T22:32:25.977Z,10.5
2022-11-09T22:42:25.991Z,10.3
2022-11-09T22:52:25.975Z,10.3
2022-11-09T23:02:25.934Z,10.3
2022-11-09T23:12:25.953Z,10.2
2022-11-09T23:22:25.891Z,10.2
2022-11-09T23:32:25.889Z,10.1
2022-11-09T23:42:25.926Z,10.1
2022-11-09T23:52:25.893Z,10
